createdAt,value
2022-10-23T00:00:24.993Z,99.90
2022-10-23T00:05:39.375Z,99.90
2022-10-23T00:08:11.431Z,99.90
2022-10-23T00:10:42.319Z,99.90
2022-10-23T00:13:14.518Z,11.10
2022-10-23T00:15:48.829Z,1.00
2022-10-23T00:18:17.171Z,1.00
2022-10-23T00:20:51.861Z,1.00
2022-10-23T00:23:22.543Z,1.00
2022-10-23T00:25:56.047Z,99.90
2022-10-23T00:31:32.127Z,1.00
2022-10-23T00:34:00.612Z,1.00
2022-10-23T00:36:32.336Z,1.00
2022-10-23T00:39:33.995Z,1.00
2022-10-23T00:42:12.825Z,1.00
2022-10-23T00:45:04.408Z,1.00
2022-10-23T00:47:37.221Z,35.50
2022-10-23T00:50:26.460Z,99.90
2022-10-23T00:53:08.818Z,99.90
2022-10-23T00:56:05.188Z,99.90
2022-10-23T01:01:36.919Z,97.30
2022-10-23T01:04:30.679Z,99.90
2022-10-23T01:07:04.502Z,99.90
2022-10-23T01:09:53.759Z,99.90
2022-10-23T01:12:37.920Z,99.90
2022-10-23T01:15:13.463Z,99.90
2022-10-23T01:18:09.452Z,99.90
2022-10-23T01:20:45.673Z,99.90
2022-10-23T01:23:35.682Z,99.90
2022-10-23T01:26:26.825Z,99.90
2022-10-23T01:29:24.461Z,99.90
2022-10-23T01:35:38.568Z,99.90
2022-10-23T01:38:25.953Z,99.90
2022-10-23T01:41:23.003Z,99.90
2022-10-23T01:46:37.866Z,99.90
2022-10-23T01:49:24.681Z,99.90
2022-10-23T01:52:21.744Z,99.90
2022-10-23T01:55:26.329Z,99.90
2022-10-23T01:58:26.853Z,99.90
2022-10-23T02:01:22.855Z,99.90
2022-10-23T02:07:07.001Z,99.90
2022-10-23T02:09:54.565Z,99.90
2022-10-23T02:15:10.964Z,99.90
2022-10-23T02:18:14.177Z,99.90
2022-10-23T02:21:03.315Z,99.90
2022-10-23T02:23:58.499Z,99.90
2022-10-23T02:26:45.655Z,99.90
2022-10-23T02:29:28.687Z,99.90
2022-10-23T02:33:47.557Z,99.90
2022-10-23T02:35:32.259Z,99.90
2022-10-23T02:40:59.742Z,99.90
2022-10-23T02:43:38.283Z,99.90
2022-10-23T02:46:30.853Z,99.90
2022-10-23T02:49:11.075Z,99.90
2022-10-23T02:51:53.468Z,99.90
2022-10-23T02:54:26.204Z,99.90
2022-10-23T02:57:11.055Z,99.90
2022-10-23T02:59:58.975Z,99.90
2022-10-23T03:02:55.635Z,99.90
2022-10-23T03:05:36.079Z,99.90
2022-10-23T03:08:07.383Z,99.90
2022-10-23T03:13:41.140Z,99.90
2022-10-23T03:22:33.835Z,99.90
2022-10-23T03:25:03.468Z,97.90
2022-10-23T03:27:53.178Z,99.90
2022-10-23T03:30:27.361Z,99.90
2022-10-23T03:33:00.080Z,99.90
2022-10-23T03:35:32.552Z,99.90
2022-10-23T03:38:11.220Z,99.90
2022-10-23T03:40:44.351Z,99.90
2022-10-23T03:46:17.079Z,99.90
2022-10-23T03:48:55.618Z,99.90
2022-10-23T03:51:59.944Z,99.90
2022-10-23T03:54:57.464Z,99.90
2022-10-23T03:57:32.880Z,99.90
2022-10-23T04:33:11.357Z,99.90
2022-10-23T04:35:47.477Z,99.90
2022-10-23T04:49:02.719Z,99.90
2022-10-23T04:51:55.109Z,99.90
2022-10-23T04:54:35.777Z,99.90
2022-10-23T04:57:19.989Z,99.90
2022-10-23T05:00:03.291Z,99.90
2022-10-23T05:03:00.185Z,99.90
2022-10-23T05:05:56.171Z,99.90
2022-10-23T05:08:30.216Z,99.90
2022-10-23T05:10:59.987Z,99.90
2022-10-23T05:13:36.455Z,99.90
2022-10-23T05:16:11.835Z,99.90
2022-10-23T05:19:17.825Z,99.90
2022-10-23T05:25:15.261Z,99.90
2022-10-23T05:27:58.515Z,99.90
2022-10-23T05:30:40.411Z,99.90
2022-10-23T05:33:37.887Z,99.90
2022-10-23T05:36:35.010Z,99.90
2022-10-23T05:45:28.830Z,99.90
2022-10-23T05:48:10.779Z,99.90
2022-10-23T05:51:02.908Z,99.90
2022-10-23T05:53:42.623Z,99.90
2022-10-23T05:56:19.890Z,99.90
2022-10-23T05:59:05.739Z,99.90
2022-10-23T06:01:50.418Z,99.90
2022-10-23T06:04:24.633Z,99.90
2022-10-23T06:07:15.966Z,99.90
2022-10-23T06:09:49.737Z,99.90
2022-10-23T06:12:17.532Z,99.90
2022-10-23T06:14:45.321Z,99.90
2022-10-23T06:17:14.484Z,99.90
2022-10-23T06:19:42.340Z,99.90
2022-10-23T06:22:10.261Z,99.90
2022-10-23T06:24:38.099Z,99.90
2022-10-23T06:27:06.214Z,99.90
2022-10-23T06:29:34.006Z,99.90
2022-10-23T06:32:01.797Z,99.90
2022-10-23T06:34:31.018Z,99.90
2022-10-23T06:36:58.789Z,99.90
2022-10-23T06:39:29.770Z,99.90
2022-10-23T06:41:59.841Z,99.90
2022-10-23T06:44:27.659Z,99.90
2022-10-23T06:46:55.420Z,99.90
2022-10-23T06:49:23.237Z,99.90
2022-10-23T06:51:52.369Z,99.90
2022-10-23T06:54:20.144Z,99.90
2022-10-23T06:56:47.903Z,99.90
2022-10-23T06:59:16.306Z,99.90
2022-10-23T07:01:44.269Z,99.90
2022-10-23T07:04:13.676Z,99.90
2022-10-23T07:06:41.592Z,99.90
2022-10-23T07:09:10.765Z,99.90
2022-10-23T07:11:38.564Z,99.90
2022-10-23T07:14:06.322Z,99.90
2022-10-23T07:16:34.144Z,99.90
2022-10-23T07:19:02.026Z,99.90
2022-10-23T07:21:30.652Z,99.90
2022-10-23T07:23:58.681Z,99.90
2022-10-23T07:26:28.146Z,99.90
2022-10-23T07:28:56.123Z,99.90
2022-10-23T07:31:27.198Z,99.90
2022-10-23T07:33:56.145Z,99.90
2022-10-23T07:36:24.336Z,99.90
2022-10-23T07:38:52.357Z,99.90
2022-10-23T07:41:20.220Z,99.90
2022-10-23T07:43:49.356Z,99.90
2022-10-23T07:46:17.144Z,99.90
2022-10-23T07:48:44.906Z,99.90
2022-10-23T07:51:14.003Z,99.90
2022-10-23T07:53:43.128Z,99.90
2022-10-23T07:56:13.239Z,99.90
2022-10-23T07:58:41.007Z,99.90
2022-10-23T08:01:16.341Z,99.90
2022-10-23T08:03:44.124Z,99.90
2022-10-23T08:06:12.230Z,99.90
2022-10-23T08:08:40.014Z,99.90
2022-10-23T08:11:07.987Z,99.90
2022-10-23T08:13:35.767Z,99.90
2022-10-23T08:16:03.593Z,99.90
2022-10-23T08:18:32.674Z,99.90
2022-10-23T08:21:01.363Z,99.90
2022-10-23T08:23:29.284Z,99.90
2022-10-23T12:06:25.593Z,1.00
2022-10-23T12:08:55.153Z,1.00
2022-10-23T12:11:27.826Z,1.00
2022-10-23T12:13:56.060Z,1.00
2022-10-23T12:16:23.845Z,1.00
2022-10-23T12:18:53.013Z,99.90
2022-10-23T12:21:22.065Z,1.00
2022-10-23T12:23:59.826Z,99.90
2022-10-23T12:26:36.366Z,99.90
2022-10-23T12:29:12.202Z,99.90
2022-10-23T12:31:48.031Z,99.90
2022-10-23T12:34:24.597Z,99.90
2022-10-23T12:36:59.435Z,99.90
2022-10-23T12:39:29.724Z,99.90
2022-10-23T12:41:57.683Z,99.90
2022-10-23T12:44:26.145Z,99.90
2022-10-23T12:46:55.877Z,99.90
2022-10-23T12:49:24.984Z,99.90
2022-10-23T12:51:57.371Z,99.90
2022-10-23T12:54:25.228Z,99.90
2022-10-23T12:56:54.839Z,99.90
2022-10-23T12:59:24.169Z,99.90
2022-10-23T13:01:53.105Z,99.90
2022-10-23T13:04:29.706Z,99.90
2022-10-23T13:06:58.518Z,99.90
2022-10-23T13:09:29.266Z,84.10
2022-10-23T13:11:59.108Z,20.00
2022-10-23T13:14:34.923Z,1.00
2022-10-23T13:17:03.925Z,1.00
2022-10-23T13:19:31.744Z,1.00
2022-10-23T13:21:59.861Z,1.00
2022-10-23T13:24:28.771Z,1.00
2022-10-23T13:26:58.479Z,1.00
2022-10-23T13:29:28.213Z,1.00
2022-10-23T13:31:56.058Z,1.00
2022-10-23T13:34:27.777Z,99.90
2022-10-23T13:37:03.033Z,1.00
2022-10-23T13:39:31.714Z,1.00
2022-10-23T13:42:06.881Z,1.00
2022-10-23T13:44:37.223Z,1.00
2022-10-23T13:47:05.499Z,1.00
2022-10-23T13:49:33.252Z,1.00
2022-10-23T13:52:01.058Z,93.10
2022-10-23T13:54:30.076Z,1.00
2022-10-23T13:56:58.246Z,30.60
2022-10-23T13:59:27.395Z,1.00
2022-10-23T14:01:55.276Z,10.00
2022-10-23T14:04:23.933Z,1.00
2022-10-23T14:06:58.297Z,1.00
2022-10-23T14:09:26.108Z,9.70
2022-10-23T14:11:53.892Z,15.40
2022-10-23T14:14:21.670Z,1.00
2022-10-23T14:16:52.735Z,35.90
2022-10-23T14:19:20.551Z,5.90
2022-10-23T14:21:48.426Z,1.00
2022-10-23T14:24:16.220Z,1.00
2022-10-23T14:26:44.178Z,1.00
2022-10-23T14:29:21.439Z,22.20
2022-10-23T14:31:53.203Z,1.00
2022-10-23T14:34:21.017Z,1.00
2022-10-23T14:36:56.651Z,99.90
2022-10-23T14:39:31.598Z,66.00
2022-10-23T14:41:59.387Z,99.90
2022-10-23T14:44:27.227Z,99.90
2022-10-23T14:46:56.443Z,99.90
2022-10-23T14:49:24.226Z,99.90
2022-10-23T14:51:52.016Z,99.90
2022-10-23T14:54:19.816Z,99.90
2022-10-23T14:56:47.588Z,99.90
2022-10-23T14:59:15.369Z,99.90
2022-10-23T15:01:45.904Z,99.90
2022-10-23T15:04:17.549Z,99.90
2022-10-23T15:06:46.346Z,1.00
2022-10-23T15:09:14.181Z,99.90
2022-10-23T15:11:42.461Z,1.00
2022-10-23T15:14:10.250Z,1.00
2022-10-23T15:16:41.475Z,1.00
2022-10-23T15:19:12.204Z,1.00
2022-10-23T15:21:44.592Z,1.00
2022-10-23T15:24:12.392Z,1.00
2022-10-23T15:26:42.823Z,1.00
2022-10-23T15:29:11.243Z,1.00
2022-10-23T15:31:46.612Z,1.00
2022-10-23T15:34:15.565Z,1.00
2022-10-23T15:36:46.853Z,1.00
2022-10-23T15:39:15.589Z,1.00
2022-10-23T15:41:43.727Z,1.00
2022-10-23T15:44:13.776Z,1.00
2022-10-23T15:46:41.604Z,1.00
2022-10-23T15:49:09.542Z,1.00
2022-10-23T15:51:37.883Z,1.00
2022-10-23T15:54:07.575Z,1.00
2022-10-23T15:56:35.507Z,1.00
2022-10-23T15:59:03.500Z,1.00
2022-10-23T16:01:31.354Z,1.00
2022-10-23T16:03:59.187Z,1.00
2022-10-23T16:06:27.193Z,1.00
2022-10-23T16:08:54.988Z,1.00
2022-10-23T16:11:24.905Z,1.00
2022-10-23T16:13:52.826Z,1.00
2022-10-23T16:16:20.620Z,1.00
2022-10-23T16:18:48.537Z,1.00
2022-10-23T16:21:18.127Z,1.00
2022-10-23T16:23:45.962Z,1.00
2022-10-23T16:26:14.193Z,1.00
2022-10-23T16:28:47.075Z,1.00
2022-10-23T16:31:19.379Z,1.00
2022-10-23T16:33:48.507Z,1.00
2022-10-23T16:36:16.968Z,8.60
2022-10-23T16:38:44.766Z,10.20
2022-10-23T16:41:12.583Z,1.00
2022-10-23T16:43:40.656Z,19.50
2022-10-23T16:46:12.707Z,1.00
2022-10-23T16:48:40.751Z,7.30
2022-10-23T16:51:09.264Z,1.00
2022-10-23T16:53:37.135Z,1.00
2022-10-23T16:56:05.402Z,1.00
2022-10-23T16:58:33.602Z,1.00
2022-10-23T17:01:02.355Z,2.30
2022-10-23T17:03:31.596Z,1.00
2022-10-23T17:06:03.413Z,1.30
2022-10-23T17:08:34.178Z,1.00
2022-10-23T17:11:06.112Z,4.10
2022-10-23T17:13:34.197Z,5.70
2022-10-23T17:16:05.889Z,1.10
2022-10-23T17:18:38.706Z,8.10
2022-10-23T17:21:10.718Z,8.30
2022-10-23T17:23:38.545Z,1.00
2022-10-23T17:26:07.567Z,1.00
2022-10-23T17:28:39.838Z,1.00
2022-10-23T17:31:12.108Z,1.00
2022-10-23T17:33:41.266Z,1.00
2022-10-23T17:36:09.460Z,1.00
2022-10-23T17:38:37.483Z,1.00
2022-10-23T17:41:05.772Z,1.00
2022-10-23T17:43:34.038Z,1.00
2022-10-23T17:46:01.848Z,1.00
2022-10-23T17:48:29.592Z,1.00
2022-10-23T17:51:06.251Z,1.00
2022-10-23T17:53:34.464Z,1.00
2022-10-23T17:56:02.361Z,1.00
2022-10-23T17:58:30.198Z,1.00
2022-10-23T18:00:58.093Z,1.00
2022-10-23T18:03:25.919Z,1.00
2022-10-23T18:05:53.692Z,1.00
2022-10-23T18:08:22.872Z,1.00
2022-10-23T18:10:50.686Z,1.00
2022-10-23T18:13:18.487Z,1.00
2022-10-23T18:15:46.940Z,1.00
2022-10-23T18:18:14.760Z,1.00
2022-10-23T18:20:42.904Z,1.00
2022-10-23T18:23:10.667Z,1.00
2022-10-23T18:25:42.887Z,1.00
2022-10-23T18:28:10.688Z,1.00
2022-10-23T18:33:11.338Z,99.90
2022-10-23T18:35:39.152Z,1.00
2022-10-23T18:38:07.003Z,1.00
2022-10-23T18:40:35.269Z,99.90
2022-10-23T18:43:09.051Z,99.90
2022-10-23T18:45:43.314Z,99.90
2022-10-23T18:48:11.092Z,99.90
2022-10-23T18:50:39.358Z,99.90
2022-10-23T18:53:07.123Z,99.90
2022-10-23T18:55:34.938Z,99.90
2022-10-23T18:58:04.098Z,99.90
2022-10-23T19:00:31.943Z,99.90
2022-10-23T19:02:59.745Z,99.90
2022-10-23T19:05:27.535Z,99.90
2022-10-23T19:07:55.748Z,99.90
2022-10-23T19:10:24.599Z,99.90
2022-10-23T19:12:52.383Z,99.90
2022-10-23T19:15:21.555Z,99.90
2022-10-23T19:17:55.221Z,99.90
2022-10-23T19:20:23.309Z,99.90
2022-10-23T19:22:52.241Z,99.90
2022-10-23T19:25:21.065Z,99.90
2022-10-23T19:27:49.194Z,99.90
2022-10-23T19:30:20.581Z,99.90
2022-10-23T19:32:52.218Z,99.90
2022-10-23T19:35:21.316Z,99.90
2022-10-23T19:37:49.272Z,99.90
2022-10-23T19:40:17.070Z,99.90
2022-10-23T19:42:45.081Z,99.90
2022-10-23T19:45:14.057Z,99.90
2022-10-23T19:47:42.667Z,99.90
2022-10-23T19:50:12.500Z,99.90
2022-10-23T19:52:40.422Z,99.90
2022-10-23T19:55:08.949Z,99.90
2022-10-23T19:57:37.168Z,99.90
